• Join FlightAware (Why Join?)
  • Login
  • US Flag 
05:19AM EDT


 

Airport Tracker/Info


-or-


 

Live Flight TrackerFlight Track Log ✈ SWA22 ✈ 10-Apr-2013 ✈ KDAL - KAMA

Flight Track Log - Related Links

Times and Time Zones

All times are in EDT time to prevent confusion due to time zone crossing. See the SWA22 flight status page for this flight to view local times or setup timezone preferences in your user account.

Time Position Orientation Groundspeed Altitude Reporting Facility
EDT Latitude Longitude Course Direction KTS MPH feet Rate Location/Type
04:29PM 32.8667 -96.8833 301° West 157 181 2,400  Level Dallas / Fort Worth TRACON
04:30PM 32.9000 -96.9333 308° West 206 237 5,500 2,760 Climbing Dallas / Fort Worth TRACON
04:31PM 32.9667 -97.0000 320° Northwest 277 319 8,200 2,460 Climbing Dallas / Fort Worth TRACON
04:32PM 33.0167 -97.0333 331° Northwest 302 348 10,500 2,880 Climbing Dallas / Fort Worth TRACON
04:33PM 33.0667 -97.1167 306° West 298 343 13,700 1,920 Climbing Dallas / Fort Worth TRACON
04:35PM 33.1291 -97.4081 301° West  Level FlightAware Approximate
04:36PM 33.0733 -97.3714 272° West 347 399 17,000  Level Fort Worth Center
04:37PM 33.0775 -97.4803 273° West 365 420 17,900 1,380 Climbing Fort Worth Center
04:38PM 33.0836 -97.5944 274° West 365 420 19,800 2,400 Climbing Fort Worth Center
04:39PM 33.0958 -97.7483 275° West 389 448 22,800 2,760 Climbing Fort Worth Center
04:40PM 33.1331 -97.8650 291° West 408 470 25,400 2,400 Climbing Fort Worth Center
04:41PM 33.1722 -97.9892 291° West 408 470 27,700 2,040 Climbing Fort Worth Center
04:42PM 33.2133 -98.1236 290° West 398 458 29,500 2,100 Climbing Fort Worth Center
04:43PM 33.2503 -98.2431 290° West 391 450 32,000 2,220 Climbing Fort Worth Center
04:44PM 33.2869 -98.3553 291° West 377 434 34,000 1,500 Climbing Fort Worth Center
04:45PM 33.3239 -98.4378 298° West 359 413 35,000 960 Climbing Fort Worth Center
04:46PM 33.3917 -98.5506 306° West 369 425 36,000 480 Climbing Fort Worth Center
04:47PM 33.4575 -98.6583 306° West 387 445 36,000  Level Fort Worth Center
04:48PM 33.5211 -98.7614 307° West 392 451 36,000  Level Fort Worth Center
04:49PM 33.5950 -98.8847 306° West 403 464 36,000  Level Fort Worth Center
04:50PM 33.6561 -98.9906 305° West 403 464 36,000  Level Fort Worth Center
04:51PM 33.7156 -99.0867 307° West 403 464 36,000  Level Fort Worth Center
04:52PM 33.7808 -99.1903 307° West 398 458 36,000  Level Fort Worth Center
04:53PM 33.8461 -99.2992 306° West 398 458 36,000  Level Fort Worth Center
04:54PM 33.9153 -99.4133 306° West 410 472 36,000  Level Fort Worth Center
04:55PM 33.9822 -99.5275 305° West 410 472 36,000  Level Fort Worth Center
04:56PM 34.0492 -99.6444 305° West 415 478 36,000  Level Fort Worth Center
04:57PM 34.1178 -99.7592 306° West 415 478 36,000  Level Fort Worth Center
04:58PM 34.1847 -99.8689 306° West 421 484 36,000  Level Fort Worth Center
04:59PM 34.2531 -99.9889 305° West 427 491 36,000 -360 Level Fort Worth Center
05:00PM 34.3175 -100.1039 304° West 427 491 35,300 -1,560 Descending Fort Worth Center
05:01PM 34.4042 -100.2439 307° West 404 465 32,500 -2,340 Descending Albuquerque Center
05:02PM 34.4700 -100.3569 305° West 406 467 30,000 -2,340 Descending Albuquerque Center
05:03PM 34.5331 -100.4644 305° West 398 458 27,700 -2,160 Descending Albuquerque Center
05:04PM 34.5928 -100.5675 305° West 381 438 25,500 -2,340 Descending Albuquerque Center
05:05PM 34.6600 -100.6850 305° West 360 414 22,900 -2,280 Descending Albuquerque Center
05:06PM 34.7142 -100.7786 305° West 346 398 20,900 -1,920 Descending Albuquerque Center
05:07PM 34.7644 -100.8653 305° West 324 373 19,000 -1,800 Descending Albuquerque Center
05:08PM 34.8125 -100.9511 304° West 312 359 17,200 -1,800 Descending Albuquerque Center
05:09PM 34.8597 -101.0333 305° West 301 346 15,300 -1,860 Descending Albuquerque Center
05:10PM 34.9050 -101.1131 305° West 292 336 13,400 -1,620 Descending Albuquerque Center
05:11PM 34.9536 -101.2094 302° West 282 325 12,000 -1,560 Descending Albuquerque Center
05:12PM 34.9908 -101.2842 301° West 264 304 10,200 -1,680 Descending Albuquerque Center
05:13PM 35.0272 -101.3589 301° West 260 299 8,600 -1,380 Descending Albuquerque Center
05:14PM 35.0636 -101.4331 301° West 257 296 7,400 -1,320 Descending Albuquerque Center
05:15PM 35.0944 -101.5072 297° West 251 289 5,900 -840 Descending Albuquerque Center
05:16PM 35.1211 -101.5758 295° West 235 270 5,700 -420 Descending Albuquerque Center
05:17PM 35.1675 -101.6267 318° Northwest 197 227 5,100 -780 Descending Albuquerque Center
05:18PM 35.1956 -101.6589 317° Northwest 163 188 4,200 -720 Descending Albuquerque Center
05:20PM 35.2214 -101.6867 319° Northwest 137 158 3,700 -540 Descending Albuquerque Center